createdAt,value
2023-04-19T00:01:13.089Z,100232.06
2023-04-19T00:03:39.833Z,100206.84
2023-04-19T00:06:06.776Z,100213.16
2023-04-19T00:08:33.413Z,100202.59
2023-04-19T00:10:59.867Z,100209.06
2023-04-19T00:13:26.430Z,100198.91
2023-04-19T00:15:52.998Z,100212.59
2023-04-19T00:18:19.562Z,100201.47
2023-04-19T00:20:46.200Z,100199.53
2023-04-19T00:23:13.066Z,100203.13
2023-04-19T00:25:39.974Z,100199.31
2023-04-19T00:28:06.699Z,100206.97
2023-04-19T00:30:33.373Z,100195.00
2023-04-19T00:33:03.209Z,100194.66
2023-04-19T00:35:30.192Z,100194.50
2023-04-19T00:37:59.931Z,100182.97
2023-04-19T00:40:26.990Z,100195.88
2023-04-19T00:42:53.751Z,100178.00
2023-04-19T00:45:20.300Z,100192.78
2023-04-19T00:47:47.263Z,100174.09
2023-04-19T00:50:14.293Z,100187.38
2023-04-19T00:52:40.809Z,100195.88
2023-04-19T00:55:08.147Z,100187.22
2023-04-19T00:57:35.014Z,100162.00
2023-04-19T01:00:01.766Z,100177.69
2023-04-19T01:02:28.410Z,100158.75
2023-04-19T01:04:55.425Z,100165.72
2023-04-19T01:07:22.014Z,100163.56
2023-04-19T01:09:48.635Z,100170.31
2023-04-19T01:12:15.365Z,100166.81
2023-04-19T01:14:42.060Z,100148.00
2023-04-19T01:17:09.071Z,100152.34
2023-04-19T01:19:36.741Z,100173.44
2023-04-19T01:22:03.547Z,100153.75
2023-04-19T01:24:31.409Z,100143.09
2023-04-19T01:26:58.496Z,100152.59
2023-04-19T01:29:25.391Z,100135.94
2023-04-19T01:31:52.114Z,100145.94
2023-04-19T01:34:18.564Z,100142.28
2023-04-19T01:36:45.631Z,100151.56
2023-04-19T01:39:12.770Z,100128.00
2023-04-19T01:41:39.506Z,100142.56
2023-04-19T01:44:05.981Z,100139.41
2023-04-19T01:46:32.634Z,100134.53
2023-04-19T01:48:59.219Z,100156.28
2023-04-19T01:51:25.750Z,100132.13
2023-04-19T01:53:52.378Z,100124.94
2023-04-19T01:56:19.208Z,100148.31
2023-04-19T01:58:45.858Z,100148.09
2023-04-19T02:01:12.324Z,100145.06
2023-04-19T02:03:40.090Z,100133.84
2023-04-19T02:06:11.146Z,100139.72
2023-04-19T02:08:37.832Z,100134.28
2023-04-19T02:11:10.604Z,100146.06
2023-04-19T02:13:37.786Z,100126.16
2023-04-19T02:16:04.697Z,100121.34
2023-04-19T02:18:31.716Z,100097.25
2023-04-19T02:21:01.565Z,100107.75
2023-04-19T02:23:28.195Z,100110.44
2023-04-19T02:25:57.134Z,100118.94
2023-04-19T02:28:23.930Z,100128.16
2023-04-19T02:30:50.438Z,100131.41
2023-04-19T02:33:17.791Z,100147.19
2023-04-19T02:35:44.390Z,100133.63
2023-04-19T02:38:10.912Z,100120.25
2023-04-19T02:40:37.269Z,100122.38
2023-04-19T02:43:04.113Z,100145.16
2023-04-19T02:45:30.553Z,100126.91
2023-04-19T02:47:57.426Z,100116.16
2023-04-19T02:50:23.861Z,100095.38
2023-04-19T02:52:50.501Z,100131.34
2023-04-19T02:55:16.895Z,100112.91
2023-04-19T02:57:43.309Z,100098.19
2023-04-19T03:00:10.218Z,100123.41
2023-04-19T03:02:37.227Z,100144.91
2023-04-19T03:05:03.758Z,100125.38
2023-04-19T03:07:30.104Z,100129.78
2023-04-19T03:09:56.513Z,100130.13
2023-04-19T03:12:22.837Z,100113.72
2023-04-19T03:14:49.332Z,100139.09
2023-04-19T03:17:15.720Z,100120.31
2023-04-19T03:19:42.130Z,100131.63
2023-04-19T03:22:08.525Z,100098.75
2023-04-19T03:24:37.627Z,100132.53
2023-04-19T03:27:04.521Z,100121.13
2023-04-19T03:29:31.359Z,100132.19
2023-04-19T03:31:57.876Z,100125.72
2023-04-19T03:34:24.325Z,100116.31
2023-04-19T03:36:51.235Z,100119.84
2023-04-19T03:39:17.787Z,100133.09
2023-04-19T03:41:44.582Z,100129.75
2023-04-19T03:44:11.137Z,100117.50
2023-04-19T03:46:37.868Z,100115.72
2023-04-19T03:49:05.668Z,100119.22
2023-04-19T03:51:33.873Z,100107.44
2023-04-19T03:54:00.759Z,100114.66
2023-04-19T03:56:27.317Z,100107.53
2023-04-19T03:58:54.054Z,100109.25
2023-04-19T04:01:21.592Z,100096.41
2023-04-19T04:03:48.715Z,100084.44
2023-04-19T04:06:15.904Z,100097.69
2023-04-19T04:08:42.478Z,100102.94
2023-04-19T04:11:09.191Z,100109.81
2023-04-19T04:13:35.588Z,100095.09
2023-04-19T04:16:01.949Z,100107.31
2023-04-19T04:18:28.306Z,100126.78
2023-04-19T04:20:54.767Z,100115.72
2023-04-19T04:23:21.203Z,100112.34
2023-04-19T04:25:47.497Z,100116.63
2023-04-19T04:28:13.829Z,100132.31
2023-04-19T04:30:41.555Z,100114.50
2023-04-19T04:33:07.986Z,100124.13
2023-04-19T04:35:34.494Z,100125.19
2023-04-19T04:38:01.967Z,100135.94
2023-04-19T04:40:30.831Z,100132.75
2023-04-19T04:42:57.189Z,100134.34
2023-04-19T04:45:23.690Z,100125.22
2023-04-19T04:47:50.162Z,100127.31
2023-04-19T04:50:16.913Z,100134.16
2023-04-19T04:52:43.467Z,100141.97
2023-04-19T04:55:09.776Z,100139.63
2023-04-19T04:57:36.234Z,100135.56
2023-04-19T05:00:02.788Z,100139.06
2023-04-19T05:02:29.339Z,100133.53
2023-04-19T05:04:55.749Z,100148.59
2023-04-19T05:07:22.383Z,100136.25
2023-04-19T05:09:48.739Z,100142.19
2023-04-19T05:12:15.353Z,100143.69
2023-04-19T05:14:41.962Z,100145.34
2023-04-19T05:17:08.256Z,100157.63
2023-04-19T05:19:34.546Z,100135.94
2023-04-19T05:22:01.226Z,100140.47
2023-04-19T05:24:27.591Z,100143.09
2023-04-19T05:26:54.081Z,100113.34
2023-04-19T05:29:21.008Z,100144.81
2023-04-19T05:31:47.734Z,100150.84
2023-04-19T05:34:19.610Z,100161.38
2023-04-19T05:36:47.951Z,100101.22
2023-04-19T05:39:14.270Z,100108.03
2023-04-19T05:41:41.864Z,100159.19
2023-04-19T05:44:08.593Z,100150.97
2023-04-19T05:46:35.083Z,100138.19
2023-04-19T05:49:03.602Z,100139.09
2023-04-19T05:51:30.357Z,100138.41
2023-04-19T05:53:57.607Z,100118.47
2023-04-19T05:56:24.102Z,100148.16
2023-04-19T05:58:50.768Z,100134.16
2023-04-19T06:01:17.139Z,100123.28
2023-04-19T06:03:43.822Z,100140.19
2023-04-19T06:06:10.365Z,100157.19
2023-04-19T06:08:37.031Z,100164.81
2023-04-19T06:11:15.280Z,100156.56
2023-04-19T06:13:49.630Z,100162.41
2023-04-19T06:16:24.944Z,100133.94
2023-04-19T06:18:51.612Z,100157.16
2023-04-19T06:21:18.446Z,100161.53
2023-04-19T06:23:46.640Z,100105.50
2023-04-19T06:26:13.258Z,100150.63
2023-04-19T06:28:39.564Z,100131.94
2023-04-19T06:31:06.106Z,100132.56
2023-04-19T06:33:32.493Z,100155.59
2023-04-19T06:35:58.917Z,100140.38
2023-04-19T06:38:25.498Z,100124.91
2023-04-19T06:40:51.970Z,100148.06
2023-04-19T06:43:18.304Z,100156.63
2023-04-19T06:45:44.731Z,100129.22
2023-04-19T06:48:13.661Z,100149.16
2023-04-19T06:50:40.480Z,100133.13
2023-04-19T06:53:06.835Z,100152.59
2023-04-19T06:55:33.500Z,100106.91
2023-04-19T06:57:59.931Z,100120.91
2023-04-19T07:00:29.734Z,100132.53
2023-04-19T07:02:58.733Z,100130.13
2023-04-19T07:05:25.202Z,100128.81
2023-04-19T07:07:51.603Z,100129.44
2023-04-19T07:10:18.344Z,100110.72
2023-04-19T07:12:46.029Z,100124.53
2023-04-19T07:15:12.394Z,100124.03
2023-04-19T07:17:39.322Z,100123.69
2023-04-19T07:20:06.797Z,100086.13
2023-04-19T07:22:33.909Z,100147.06
2023-04-19T07:25:00.322Z,100114.47
2023-04-19T07:27:27.760Z,100133.19
2023-04-19T07:29:54.516Z,100126.16
2023-04-19T07:32:21.296Z,100111.13
2023-04-19T07:34:48.113Z,100109.78
2023-04-19T07:37:14.542Z,100114.53
2023-04-19T07:39:40.885Z,100115.56
2023-04-19T07:42:07.439Z,100112.38
2023-04-19T07:44:33.899Z,100121.00
2023-04-19T07:47:00.605Z,100118.91
2023-04-19T07:49:30.485Z,100135.19
2023-04-19T07:52:01.201Z,100111.28
2023-04-19T07:54:28.024Z,100105.47
2023-04-19T07:56:54.623Z,100118.78
2023-04-19T07:59:20.964Z,100114.06
2023-04-19T08:01:47.437Z,100106.41
2023-04-19T08:04:19.477Z,100121.16
2023-04-19T08:07:13.207Z,100103.72
2023-04-19T08:09:46.857Z,100050.53
2023-04-19T08:12:36.393Z,100093.44
2023-04-19T08:21:41.216Z,100107.25
2023-04-19T08:31:40.350Z,100037.06
2023-04-19T08:38:06.683Z,100097.19
2023-04-19T08:41:26.897Z,100092.25
2023-04-19T08:48:05.180Z,100041.31
2023-04-19T08:50:20.605Z,100060.47
2023-04-19T08:59:46.712Z,100022.91
2023-04-19T09:02:58.087Z,100007.03
2023-04-19T09:06:07.194Z,100073.19
2023-04-19T09:08:34.180Z,100075.66
2023-04-19T09:11:01.822Z,100059.31
2023-04-19T09:13:31.761Z,100045.63
2023-04-19T09:15:58.708Z,100015.22
2023-04-19T09:18:30.726Z,100039.97
2023-04-19T09:20:58.997Z,100012.94
2023-04-19T09:23:27.528Z,100031.41
2023-04-19T09:26:19.302Z,100025.16
2023-04-19T09:28:57.070Z,100019.47
2023-04-19T09:34:20.853Z,100002.88
2023-04-19T09:36:57.456Z,100008.22
2023-04-19T09:39:43.946Z,100003.38
2023-04-19T09:42:10.341Z,99998.66
2023-04-19T09:47:26.500Z,100014.41
2023-04-19T09:50:23.943Z,100014.59
2023-04-19T09:52:53.093Z,99991.56
2023-04-19T09:55:52.537Z,99994.25
2023-04-19T09:58:38.185Z,99955.66
2023-04-19T10:01:17.546Z,99982.72
2023-04-19T10:04:03.647Z,99989.28
2023-04-19T10:07:25.348Z,99953.53
2023-04-19T10:09:54.222Z,99981.00
2023-04-19T10:12:46.237Z,99963.97
2023-04-19T10:15:14.972Z,99969.63
2023-04-19T10:17:51.800Z,99972.91
2023-04-19T10:20:27.028Z,99967.53
2023-04-19T10:22:54.571Z,99937.78
2023-04-19T10:25:29.286Z,99941.66
2023-04-19T10:27:56.254Z,99942.81
2023-04-19T10:30:23.510Z,99929.00
2023-04-19T10:33:26.970Z,99958.53
2023-04-19T10:35:56.905Z,99907.25
2023-04-19T10:38:36.320Z,99947.56
2023-04-19T10:41:04.609Z,99941.34
2023-04-19T10:43:55.992Z,99949.44
2023-04-19T10:46:22.780Z,99942.16
2023-04-19T10:48:51.924Z,99944.47
2023-04-19T10:51:18.506Z,99945.84
2023-04-19T10:54:32.180Z,99925.56
2023-04-19T10:56:59.661Z,99921.84
2023-04-19T10:59:27.088Z,99919.63
2023-04-19T11:01:58.848Z,99911.13
2023-04-19T11:04:32.205Z,99915.91
2023-04-19T11:07:04.229Z,99900.81
2023-04-19T11:09:34.762Z,99907.03
2023-04-19T11:12:09.127Z,99899.94
2023-04-19T11:14:43.447Z,99904.44
2023-04-19T11:17:18.609Z,99905.75
2023-04-19T11:20:04.921Z,99895.25
2023-04-19T11:22:32.886Z,99893.94
2023-04-19T11:25:24.364Z,99888.69
2023-04-19T11:28:01.020Z,99876.38
2023-04-19T11:30:30.429Z,99854.63
2023-04-19T11:32:58.237Z,99883.66
2023-04-19T11:35:29.100Z,99884.47
2023-04-19T11:37:58.411Z,99888.38
2023-04-19T11:40:26.305Z,99874.09
2023-04-19T11:42:57.777Z,99870.34
2023-04-19T11:45:31.262Z,99875.09
2023-04-19T11:48:00.661Z,99868.78
2023-04-19T11:50:36.539Z,99864.09
2023-04-19T11:53:23.815Z,99872.19
2023-04-19T11:55:53.071Z,99871.75
2023-04-19T11:58:40.563Z,99864.75
2023-04-19T12:01:22.074Z,99845.00
2023-04-19T12:03:50.952Z,99863.91
2023-04-19T12:06:23.721Z,99839.53
2023-04-19T12:08:51.836Z,99860.38
2023-04-19T12:11:20.657Z,99846.63
2023-04-19T12:13:47.956Z,99833.88
2023-04-19T12:16:14.437Z,99830.75
2023-04-19T12:18:51.613Z,99847.50
2023-04-19T12:21:27.958Z,99850.66
2023-04-19T12:24:01.818Z,99834.69
2023-04-19T12:26:29.960Z,99849.03
2023-04-19T12:28:58.307Z,99846.03
2023-04-19T12:31:25.629Z,99842.81
2023-04-19T12:33:52.252Z,99849.16
2023-04-19T12:36:18.623Z,99824.47
2023-04-19T12:38:45.237Z,99835.38
2023-04-19T12:41:11.986Z,99827.25
2023-04-19T12:43:42.084Z,99822.84
2023-04-19T12:46:08.886Z,99812.59
2023-04-19T12:48:37.621Z,99815.31
2023-04-19T12:51:05.290Z,99810.91
2023-04-19T12:53:31.755Z,99803.97
2023-04-19T12:55:58.303Z,99828.22
2023-04-19T12:58:25.008Z,99813.84
2023-04-19T13:00:51.313Z,99823.81
2023-04-19T13:03:18.042Z,99814.47
2023-04-19T13:05:44.513Z,99804.50
2023-04-19T13:08:11.246Z,99814.03
2023-04-19T13:10:37.529Z,99807.34
2023-04-19T13:13:03.813Z,99802.41
2023-04-19T13:15:30.622Z,99801.56
2023-04-19T13:17:57.372Z,99799.38
2023-04-19T13:20:23.699Z,99783.63
2023-04-19T13:22:50.270Z,99799.59
2023-04-19T13:25:16.684Z,99776.66
2023-04-19T13:27:43.057Z,99790.78
2023-04-19T13:30:10.080Z,99783.50
2023-04-19T13:32:43.153Z,99778.44
2023-04-19T13:35:10.038Z,99783.41
2023-04-19T13:37:36.888Z,99787.03
2023-04-19T13:40:17.517Z,99792.88
2023-04-19T13:42:45.492Z,99791.53
2023-04-19T13:45:12.207Z,99793.56
2023-04-19T13:47:38.621Z,99790.13
2023-04-19T13:50:05.374Z,99789.97
2023-04-19T13:52:32.121Z,99790.88
2023-04-19T13:54:58.565Z,99778.44
2023-04-19T13:57:24.875Z,99765.75
2023-04-19T13:59:51.573Z,99773.84
2023-04-19T14:02:18.127Z,99769.31
2023-04-19T14:04:44.493Z,99751.72
2023-04-19T14:07:10.933Z,99766.78
2023-04-19T14:09:37.576Z,99764.75
2023-04-19T14:12:04.063Z,99758.97
2023-04-19T14:14:32.444Z,99759.31
2023-04-19T14:16:59.008Z,99751.66
2023-04-19T14:19:25.363Z,99729.47
2023-04-19T14:21:51.720Z,99736.81
2023-04-19T14:24:18.713Z,99740.06
2023-04-19T14:26:46.494Z,99734.97
2023-04-19T14:29:15.126Z,99721.03
2023-04-19T14:31:41.682Z,99727.22
2023-04-19T14:34:07.991Z,99729.16
2023-04-19T14:36:34.279Z,99715.91
2023-04-19T14:39:00.721Z,99718.91
2023-04-19T14:41:27.028Z,99690.97
2023-04-19T14:43:53.382Z,99688.31
2023-04-19T14:46:19.837Z,99696.66
2023-04-19T14:48:46.251Z,99685.75
2023-04-19T14:51:12.963Z,99689.13
2023-04-19T14:53:39.334Z,99694.16
2023-04-19T14:56:06.279Z,99688.22
2023-04-19T14:58:32.845Z,99696.38
2023-04-19T15:00:59.628Z,99715.16
2023-04-19T15:03:26.292Z,99715.44
2023-04-19T15:05:52.989Z,99712.44
2023-04-19T15:08:30.391Z,99705.28
2023-04-19T15:10:57.834Z,99708.97
2023-04-19T15:13:24.239Z,99718.13
2023-04-19T15:15:50.723Z,99722.22
2023-04-19T15:18:17.261Z,99709.31
2023-04-19T15:20:43.794Z,99701.34
2023-04-19T15:23:10.181Z,99706.25
2023-04-19T15:25:36.601Z,99705.13
2023-04-19T15:28:03.610Z,99689.50
2023-04-19T15:30:30.111Z,99699.97
2023-04-19T15:32:56.723Z,99680.44
2023-04-19T15:35:23.422Z,99687.00
2023-04-19T15:37:49.777Z,99690.84
2023-04-19T15:40:16.280Z,99684.69
2023-04-19T15:42:42.817Z,99695.66
2023-04-19T15:45:09.341Z,99698.44
2023-04-19T15:47:35.902Z,99699.88
2023-04-19T15:50:02.359Z,99691.56
2023-04-19T15:52:28.652Z,99703.00
2023-04-19T15:54:55.306Z,99697.34
2023-04-19T15:57:21.879Z,99700.94
2023-04-19T15:59:48.297Z,99685.44
2023-04-19T16:02:14.783Z,99706.41
2023-04-19T16:04:41.281Z,99693.06
2023-04-19T16:07:07.812Z,99697.72
2023-04-19T16:09:34.160Z,99699.75
2023-04-19T16:12:00.776Z,99698.59
2023-04-19T16:14:27.263Z,99694.56
2023-04-19T16:16:53.895Z,99697.16
2023-04-19T16:19:21.377Z,99705.09
2023-04-19T16:21:49.405Z,99684.16
2023-04-19T16:24:15.801Z,99692.84
2023-04-19T16:26:42.147Z,99696.44
2023-04-19T16:29:08.489Z,99699.44
2023-04-19T16:31:34.908Z,99697.91
2023-04-19T16:34:01.526Z,99697.03
2023-04-19T16:36:28.028Z,99696.75
2023-04-19T16:38:54.342Z,99698.25
2023-04-19T16:41:20.674Z,99687.16
2023-04-19T16:43:47.024Z,99700.00
2023-04-19T16:46:13.389Z,99696.28
2023-04-19T16:48:39.787Z,99688.75
2023-04-19T16:51:06.086Z,99689.56
2023-04-19T16:53:32.469Z,99679.13
2023-04-19T16:55:58.750Z,99696.06
2023-04-19T16:58:25.074Z,99673.84
2023-04-19T17:00:51.409Z,99680.53
2023-04-19T17:03:17.889Z,99671.91
2023-04-19T17:05:44.249Z,99682.13
2023-04-19T17:08:10.672Z,99681.75
2023-04-19T17:10:36.988Z,99688.41
2023-04-19T17:13:03.490Z,99674.78
2023-04-19T17:15:30.007Z,99653.13
2023-04-19T17:17:58.875Z,99664.88
2023-04-19T17:20:25.267Z,99632.03
2023-04-19T17:22:51.607Z,99656.78
2023-04-19T17:25:17.888Z,99654.47
2023-04-19T17:27:44.273Z,99673.50
2023-04-19T17:30:10.863Z,99654.78
2023-04-19T17:32:37.209Z,99655.47
2023-04-19T17:35:04.003Z,99661.84
2023-04-19T17:37:30.674Z,99672.50
2023-04-19T17:39:57.194Z,99667.66
2023-04-19T17:42:24.588Z,99675.00
2023-04-19T17:44:50.937Z,99674.50
2023-04-19T17:47:19.374Z,99674.81
2023-04-19T17:49:46.300Z,99671.09
2023-04-19T17:52:13.098Z,99664.94
2023-04-19T17:54:39.449Z,99665.88
2023-04-19T17:57:05.761Z,99665.38
2023-04-19T17:59:32.032Z,99658.91
2023-04-19T18:01:58.395Z,99651.63
2023-04-19T18:04:25.056Z,99673.06
2023-04-19T18:06:51.621Z,99664.81
2023-04-19T18:09:18.416Z,99662.53
2023-04-19T18:11:45.009Z,99659.53
2023-04-19T18:14:11.319Z,99661.00
2023-04-19T18:16:37.637Z,99651.66
2023-04-19T18:19:03.938Z,99656.72
2023-04-19T18:21:30.291Z,99648.41
2023-04-19T18:23:56.641Z,99650.75
2023-04-19T18:26:22.983Z,99643.38
2023-04-19T18:28:49.378Z,99658.28
2023-04-19T18:31:15.723Z,99663.22
2023-04-19T18:33:42.067Z,99653.28
2023-04-19T18:36:08.456Z,99647.19
2023-04-19T18:38:34.833Z,99656.59
2023-04-19T18:41:01.220Z,99662.22
2023-04-19T18:43:28.006Z,99652.22
2023-04-19T18:45:55.939Z,99653.38
2023-04-19T18:48:23.496Z,99662.19
2023-04-19T18:50:49.812Z,99641.84
2023-04-19T18:53:16.132Z,99659.66
2023-04-19T18:55:42.528Z,99647.63
2023-04-19T18:58:09.131Z,99660.44
2023-04-19T19:00:35.461Z,99632.03
2023-04-19T19:03:03.410Z,99669.75
2023-04-19T19:05:30.780Z,99664.41
2023-04-19T19:07:57.659Z,99662.22
2023-04-19T19:12:52.867Z,99659.66
2023-04-19T19:15:19.231Z,99661.19
2023-04-19T19:17:49.402Z,99661.09
2023-04-19T19:20:17.037Z,99642.94
2023-04-19T19:22:43.516Z,99635.81
2023-04-19T19:25:11.796Z,99652.44
2023-04-19T19:27:38.874Z,99648.38
2023-04-19T19:30:06.826Z,99649.22
2023-04-19T19:32:33.220Z,99651.91
2023-04-19T19:35:03.106Z,99649.38
2023-04-19T19:37:31.121Z,99642.41
2023-04-19T19:39:57.496Z,99647.88
2023-04-19T19:42:24.099Z,99654.47
2023-04-19T19:44:54.215Z,99664.16
2023-04-19T19:47:20.672Z,99661.53
2023-04-19T19:50:17.205Z,99662.16
2023-04-19T19:52:33.602Z,99661.63
2023-04-19T19:55:00.054Z,99657.09
2023-04-19T19:59:56.757Z,99674.69
2023-04-19T20:02:24.658Z,99657.22
2023-04-19T20:04:51.218Z,99661.78
2023-04-19T20:07:37.058Z,99658.84
2023-04-19T20:10:09.540Z,99682.31
2023-04-19T20:12:36.424Z,99692.72
2023-04-19T20:15:03.715Z,99692.16
2023-04-19T20:17:30.142Z,99687.38
2023-04-19T20:19:56.536Z,99693.81
2023-04-19T20:22:23.368Z,99688.13
2023-04-19T20:24:49.905Z,99678.16
2023-04-19T20:27:16.447Z,99667.09
2023-04-19T20:29:42.847Z,99676.50
2023-04-19T20:32:09.168Z,99679.13
2023-04-19T20:34:35.535Z,99681.78
2023-04-19T20:37:04.954Z,99672.91
2023-04-19T20:39:31.275Z,99662.97
2023-04-19T20:41:57.572Z,99676.28
2023-04-19T20:44:23.989Z,99659.94
2023-04-19T20:46:50.397Z,99646.16
2023-04-19T20:49:17.043Z,99665.03
2023-04-19T20:51:43.576Z,99666.91
2023-04-19T20:54:09.913Z,99661.00
2023-04-19T20:56:36.307Z,99659.50
2023-04-19T20:59:02.586Z,99669.38
2023-04-19T21:01:28.982Z,99655.28
2023-04-19T21:03:55.586Z,99665.94
2023-04-19T21:06:23.301Z,99645.75
2023-04-19T21:08:50.085Z,99661.25
2023-04-19T21:11:16.371Z,99658.56
2023-04-19T21:13:42.691Z,99633.19
2023-04-19T21:16:09.001Z,99639.13
2023-04-19T21:18:35.324Z,99653.84
2023-04-19T21:21:01.660Z,99643.50
2023-04-19T21:23:28.041Z,99646.78
2023-04-19T21:25:56.418Z,99636.25
2023-04-19T21:28:22.773Z,99641.03
2023-04-19T21:30:49.067Z,99637.34
2023-04-19T21:33:15.476Z,99636.88
2023-04-19T21:35:41.818Z,99620.59
2023-04-19T21:38:08.145Z,99627.19
2023-04-19T21:40:34.478Z,99636.41
2023-04-19T21:43:00.784Z,99598.94
2023-04-19T21:45:27.095Z,99582.84
2023-04-19T21:47:53.423Z,99636.88
2023-04-19T21:50:19.798Z,99642.66
2023-04-19T21:52:46.132Z,99617.31
2023-04-19T21:55:12.442Z,99626.47
2023-04-19T21:57:38.733Z,99648.91
2023-04-19T22:02:57.080Z,99645.50
2023-04-19T22:05:23.568Z,99650.59
2023-04-19T22:07:49.968Z,99659.38
2023-04-19T22:10:16.397Z,99651.13
2023-04-19T22:12:51.532Z,99650.97
2023-04-19T22:15:23.879Z,99633.66
2023-04-19T22:17:50.329Z,99643.28
2023-04-19T22:20:16.976Z,99628.03
2023-04-19T22:22:43.478Z,99623.28
2023-04-19T22:25:10.416Z,99633.69
2023-04-19T22:27:36.726Z,99606.31
2023-04-19T22:30:04.365Z,99628.97
2023-04-19T22:32:30.922Z,99608.53
2023-04-19T22:34:57.287Z,99616.88
2023-04-19T22:37:23.645Z,99612.75
2023-04-19T22:39:50.049Z,99627.00
2023-04-19T22:42:16.419Z,99616.28
2023-04-19T22:44:42.819Z,99598.00
2023-04-19T22:47:09.336Z,99606.19
2023-04-19T22:49:35.626Z,99604.22
2023-04-19T22:52:02.046Z,99603.22
2023-04-19T22:54:28.358Z,99602.00
2023-04-19T22:56:54.775Z,99609.28
2023-04-19T22:59:21.084Z,99598.16
2023-04-19T23:01:47.445Z,99603.66
2023-04-19T23:04:14.451Z,99591.56
2023-04-19T23:06:42.502Z,99602.19
2023-04-19T23:09:08.793Z,99594.31
2023-04-19T23:11:35.236Z,99587.63
2023-04-19T23:14:01.598Z,99578.78
2023-04-19T23:16:27.968Z,99588.84
2023-04-19T23:18:54.240Z,99567.72
2023-04-19T23:21:20.675Z,99587.72
2023-04-19T23:23:47.484Z,99576.59
2023-04-19T23:26:13.804Z,99557.97
2023-04-19T23:28:40.450Z,99572.50
2023-04-19T23:31:06.819Z,99557.66
2023-04-19T23:33:33.167Z,99569.81
2023-04-19T23:35:59.898Z,99567.91
2023-04-19T23:38:26.206Z,99557.78
2023-04-19T23:40:52.494Z,99556.00
2023-04-19T23:43:18.887Z,99552.69
2023-04-19T23:45:45.280Z,99554.59
2023-04-19T23:48:11.613Z,99536.94
2023-04-19T23:50:37.891Z,99527.41
2023-04-19T23:53:04.293Z,99532.50
2023-04-19T23:55:30.669Z,99533.28
2023-04-19T23:57:57.150Z,99522.81
